Time;durP1;ratioP1;P1;durP2;ratioP2;P2;SDS_P1;SDS_P2;PMS_P1;PMS_P2;Temp;Humidity;BMP_temperature;BMP_pressure;BME280_temperature;BME280_humidity;BME280_pressure;Samples;Min_cycle;Max_cycle;Signal;HPM_P1;HPM_P2
2023/07/06 00:01:21;;;;;;;;;12.25;10.75;;;;;26.61;54.40;100439.50;146618;575;46017;-66
2023/07/06 00:04:36;;;;;;;;;12.33;11.00;;;;;26.58;54.28;100434.25;146615;569;46031;-66
2023/07/06 00:07:28;;;;;;;;;14.75;13.75;;;;;26.56;54.60;100433.37;146615;711;47012;-66
2023/07/06 00:10:26;;;;;;;;;13.00;13.00;;;;;26.49;55.05;100432.63;146612;575;47012;-66
2023/07/06 00:13:20;;;;;;;;;10.67;10.33;;;;;26.44;54.93;100429.12;146614;570;46915;-66
2023/07/06 00:16:14;;;;;;;;;11.67;11.67;;;;;26.40;55.23;100424.78;146618;581;46021;-66
2023/07/06 00:19:27;;;;;;;;;12.33;11.00;;;;;26.33;55.35;100428.47;146618;563;46035;-65
2023/07/06 00:22:20;;;;;;;;;14.75;12.50;;;;;26.31;55.31;100416.97;146614;597;46021;-66
2023/07/06 00:25:21;;;;;;;;;13.25;12.75;;;;;26.28;55.15;100415.25;146614;571;46016;-68
2023/07/06 00:28:26;;;;;;;;;11.25;11.00;;;;;26.28;54.51;100417.91;146618;680;46020;-66
2023/07/06 00:31:32;;;;;;;;;11.00;10.00;;;;;26.30;54.15;100417.91;146615;650;46016;-67
2023/07/06 00:34:34;;;;;;;;;;;;;;;;;;;;;
2023/07/06 00:37:42;;;;;;;;;;;;;;;;;;;;;
2023/07/06 00:40:41;;;;;;;;;10.50;9.50;;;;;26.39;53.62;100444.31;146617;596;47020;-67
2023/07/06 00:43:56;;;;;;;;;12.00;11.25;;;;;26.41;56.03;100445.12;146616;655;46016;-67
2023/07/06 00:46:51;;;;;;;;;12.50;12.50;;;;;26.39;59.31;100447.84;146613;570;46010;-65
2023/07/06 00:49:46;;;;;;;;;13.00;11.75;;;;;26.42;58.72;100461.06;146615;658;46014;-66
2023/07/06 00:52:48;;;;;;;;;10.25;9.00;;;;;26.47;58.87;100450.34;146617;648;46021;-65
2023/07/06 00:55:49;;;;;;;;;12.00;12.00;;;;;26.55;57.48;100456.44;146615;570;46016;-66
2023/07/06 00:58:47;;;;;;;;;10.67;10.67;;;;;26.58;52.07;100447.53;146611;583;48010;-65
2023/07/06 01:01:47;;;;;;;;;8.00;6.33;;;;;26.63;52.62;100449.19;146614;596;47915;-65
2023/07/06 01:04:57;;;;;;;;;9.00;8.00;;;;;26.72;51.83;100459.62;146621;611;47010;-65
2023/07/06 01:08:03;;;;;;;;;9.67;9.67;;;;;26.77;52.13;100451.59;146615;575;46017;-66
2023/07/06 01:10:59;;;;;;;;;9.67;9.67;;;;;26.83;52.69;100463.91;146621;581;46010;-66
2023/07/06 01:14:05;;;;;;;;;10.00;9.00;;;;;26.83;52.69;100456.78;146616;621;46016;-66
2023/07/06 01:17:38;;;;;;;;;11.00;9.50;;;;;26.80;53.73;100458.63;146620;579;46012;-66
2023/07/06 01:20:56;;;;;;;;;12.33;12.33;;;;;26.65;54.30;100460.66;146617;565;47014;-67
2023/07/06 01:25:02;;;;;;;;;12.00;10.25;;;;;24.00;53.18;100028.94;146617;660;46021;-66
2023/07/06 01:28:34;;;;;;;;;12.67;11.67;;;;;26.44;54.57;100467.22;146616;637;46012;-67
2023/07/06 01:32:03;;;;;;;;;10.75;10.75;;;;;26.39;55.99;100454.94;146619;691;46021;-68
2023/07/06 01:35:27;;;;;;;;;11.25;10.50;;;;;26.31;55.91;100447.09;146613;563;46016;-70
2023/07/06 01:38:23;;;;;;;;;11.00;11.00;;;;;26.22;56.65;100445.47;146615;602;46020;-71
2023/07/06 01:41:15;;;;;;;;;11.50;11.50;;;;;26.19;57.12;100453.50;146617;720;46012;-70
2023/07/06 01:44:10;;;;;;;;;9.33;9.33;;;;;26.14;58.46;100454.50;146619;580;46010;-71
2023/07/06 01:47:03;;;;;;;;;12.33;11.67;;;;;26.08;58.27;100462.56;146616;581;46016;-72
2023/07/06 01:50:01;;;;;;;;;10.00;9.00;;;;;26.05;58.32;100470.59;146613;634;47020;-71
2023/07/06 01:53:24;;;;;;;;;10.00;10.00;;;;;23.38;58.17;100018.28;146616;575;47012;-71
2023/07/06 01:56:46;;;;;;;;;12.00;11.00;;;;;23.31;58.93;100012.19;146617;578;47012;-70
2023/07/06 01:59:49;;;;;;;;;13.75;12.50;;;;;25.90;58.47;100483.22;146611;654;47013;-71
2023/07/06 02:02:47;;;;;;;;;9.33;9.00;;;;;25.86;59.49;100473.53;146617;630;47012;-71
2023/07/06 02:05:43;;;;;;;;;12.50;11.25;;;;;25.82;59.09;100481.56;146618;645;46012;-72
2023/07/06 02:08:48;;;;;;;;;10.67;10.67;;;;;25.77;58.79;100466.56;146618;609;46020;-70
2023/07/06 02:11:41;;;;;;;;;13.00;8.50;;;;;25.72;58.78;100473.69;146700;570;46023;-70
2023/07/06 02:14:38;;;;;;;;;12.33;11.33;;;;;25.69;58.54;100473.75;146614;658;46016;-70
2023/07/06 02:17:42;;;;;;;;;11.33;11.33;;;;;25.66;58.37;100476.44;146613;634;47010;-66
2023/07/06 02:20:40;;;;;;;;;15.75;13.75;;;;;25.63;58.47;100457.91;146611;712;46012;-67
2023/07/06 02:23:39;;;;;;;;;13.00;10.25;;;;;25.61;58.30;100465.03;146616;576;46010;-66
2023/07/06 02:26:37;;;;;;;;;13.00;11.50;;;;;25.60;58.61;100471.22;146607;654;46039;-67
2023/07/06 02:29:30;;;;;;;;;12.50;12.00;;;;;25.60;58.37;100465.03;146614;701;46994;-66
2023/07/06 02:32:30;;;;;;;;;13.25;12.00;;;;;25.57;58.63;100479.22;146612;613;46032;-66
2023/07/06 02:35:33;;;;;;;;;12.25;10.25;;;;;25.55;58.69;100468.66;146617;580;46030;-65
2023/07/06 02:38:33;;;;;;;;;13.00;11.75;;;;;25.53;58.57;100465.13;146609;623;46016;-66
2023/07/06 02:41:36;;;;;;;;;12.00;10.00;;;;;25.54;58.19;100468.66;146612;600;47010;-66
2023/07/06 02:44:48;;;;;;;;;13.00;11.75;;;;;25.52;57.82;100460.72;146610;569;47012;-65
2023/07/06 02:47:45;;;;;;;;;12.50;10.75;;;;;25.56;57.79;100464.22;146614;566;46010;-65
2023/07/06 02:50:41;;;;;;;;;12.25;9.75;;;;;25.57;57.52;100474.78;146607;563;46918;-64
2023/07/06 02:53:36;;;;;;;;;13.00;12.25;;;;;25.63;57.34;100463.22;146620;640;47010;-65
2023/07/06 02:56:31;;;;;;;;;12.75;11.00;;;;;25.65;57.17;100463.22;146611;594;46034;-68
2023/07/06 02:59:24;;;;;;;;;11.00;10.00;;;;;25.68;56.92;100477.31;146615;569;47020;-69
2023/07/06 03:02:29;;;;;;;;;10.67;10.67;;;;;25.71;56.29;100482.56;146611;636;47016;-67
2023/07/06 03:05:25;;;;;;;;;9.75;9.50;;;;;25.71;57.18;100477.25;146614;665;46031;-68
2023/07/06 03:08:20;;;;;;;;;11.75;9.75;;;;;25.72;57.22;100483.44;146618;587;47012;-67
2023/07/06 03:11:14;;;;;;;;;13.25;11.00;;;;;25.72;57.00;100476.34;146621;713;46030;-69
2023/07/06 03:14:21;;;;;;;;;9.75;9.25;;;;;25.68;57.34;100477.31;146610;706;46016;-64
2023/07/06 03:17:22;;;;;;;;;13.25;12.50;;;;;25.60;57.58;100481.84;146621;681;47011;-65
2023/07/06 03:20:18;;;;;;;;;12.00;11.25;;;;;25.51;58.00;100481.97;146609;574;46918;-65
2023/07/06 03:23:24;;;;;;;;;9.00;9.00;;;;;25.44;58.36;100480.31;146615;670;46010;-65
2023/07/06 03:26:24;;;;;;;;;13.00;11.50;;;;;25.34;58.49;100491.06;146617;603;47012;-64
2023/07/06 03:29:20;;;;;;;;;11.00;10.67;;;;;25.26;58.75;100482.28;146616;588;47014;-65
2023/07/06 03:32:24;;;;;;;;;12.00;10.00;;;;;25.21;58.48;100475.31;146610;675;47919;-67
2023/07/06 03:35:23;;;;;;;;;12.50;10.75;;;;;25.27;58.63;100480.56;146612;698;46020;-66
2023/07/06 03:38:16;;;;;;;;;12.75;12.25;;;;;25.30;58.69;100486.69;146609;585;47016;-66
2023/07/06 03:41:14;;;;;;;;;15.50;14.50;;;;;25.38;58.53;100483.91;146609;564;47010;-67
2023/07/06 03:44:10;;;;;;;;;12.75;12.00;;;;;25.46;57.72;100494.44;146610;571;46016;-66
2023/07/06 03:47:08;;;;;;;;;10.00;9.75;;;;;25.52;57.70;100487.28;146610;663;46021;-66
2023/07/06 03:50:08;;;;;;;;;12.50;11.50;;;;;25.60;57.51;100483.63;146617;573;46016;-66
2023/07/06 03:53:21;;;;;;;;;8.75;8.50;;;;;25.63;57.58;100499.50;146614;569;46020;-66
2023/07/06 03:56:14;;;;;;;;;9.75;9.75;;;;;25.67;56.58;100483.53;146615;715;46016;-66
2023/07/06 03:59:14;;;;;;;;;10.25;9.00;;;;;25.68;55.67;100485.28;146618;658;47010;-66
2023/07/06 04:02:18;;;;;;;;;13.00;11.25;;;;;25.66;56.68;100486.19;146616;657;47012;-66
2023/07/06 04:05:17;;;;;;;;;12.25;11.00;;;;;25.71;55.76;100490.53;146612;586;47010;-65
2023/07/06 04:08:38;;;;;;;;;12.00;12.00;;;;;25.74;56.54;100481.66;146610;714;46017;-65
2023/07/06 04:11:30;;;;;;;;;15.50;12.25;;;;;25.83;56.46;100484.22;146615;604;46020;-66
2023/07/06 04:14:27;;;;;;;;;15.00;13.75;;;;;25.96;56.20;100477.78;146606;577;47918;-67
2023/07/06 04:17:21;;;;;;;;;12.00;10.25;;;;;26.13;56.16;100479.28;146614;677;46014;-68
2023/07/06 04:20:43;;;;;;;;;12.50;10.00;;;;;26.29;55.57;100470.16;146608;605;47012;-68
2023/07/06 04:23:38;;;;;;;;;15.50;12.75;;;;;26.43;55.09;100472.59;146616;641;46010;-69
2023/07/06 04:26:33;;;;;;;;;14.00;12.00;;;;;26.54;55.15;100475.06;146609;566;47012;-66
2023/07/06 04:29:25;;;;;;;;;9.75;9.75;;;;;26.64;54.82;100477.53;146611;619;47010;-65
2023/07/06 04:32:43;;;;;;;;;12.25;12.25;;;;;26.72;54.58;100475.59;146614;626;46035;-65
2023/07/06 04:35:35;;;;;;;;;12.50;11.00;;;;;26.79;55.19;100491.44;146615;578;46020;-65
2023/07/06 04:38:43;;;;;;;;;13.25;12.50;;;;;26.87;53.65;100478.88;146609;593;46017;-66
2023/07/06 04:41:43;;;;;;;;;11.50;10.75;;;;;26.98;53.39;100490.19;146607;570;47010;-65
2023/07/06 04:44:44;;;;;;;;;11.50;11.50;;;;;27.07;54.05;100484.69;146610;583;47918;-65
2023/07/06 04:47:51;;;;;;;;;10.25;10.25;;;;;27.12;53.71;100484.56;146614;693;47014;-65
2023/07/06 04:50:43;;;;;;;;;11.25;11.25;;;;;27.16;53.76;100489.81;146612;660;46032;-65
2023/07/06 04:53:47;;;;;;;;;12.25;10.25;;;;;27.23;54.45;100487.94;146612;654;46015;-65
2023/07/06 04:56:42;;;;;;;;;16.33;14.00;;;;;27.35;53.39;100492.09;146608;645;47022;-65
2023/07/06 04:59:36;;;;;;;;;12.75;12.25;;;;;27.49;53.80;100489.16;146615;570;46020;-67
2023/07/06 05:02:37;;;;;;;;;9.50;9.00;;;;;27.63;52.43;100495.94;146609;633;47014;-65
2023/07/06 05:05:34;;;;;;;;;12.00;10.25;;;;;27.79;52.29;100508.94;146618;651;47020;-66
2023/07/06 05:08:29;;;;;;;;;10.33;9.33;;;;;27.89;51.93;100509.59;146612;601;46017;-67
2023/07/06 05:11:30;;;;;;;;;11.75;9.50;;;;;27.97;51.80;100511.13;146621;594;46020;-66
2023/07/06 05:14:48;;;;;;;;;11.67;11.67;;;;;28.09;51.84;100513.50;146617;611;46016;-67
2023/07/06 05:17:53;;;;;;;;;12.33;11.00;;;;;28.28;51.10;100523.72;146614;677;46021;-64
2023/07/06 05:20:56;;;;;;;;;9.00;8.67;;;;;28.49;49.84;100528.53;146608;613;48918;-69
2023/07/06 05:23:50;;;;;;;;;10.67;9.67;;;;;28.61;49.74;100523.81;146621;650;46021;-68
2023/07/06 05:26:47;;;;;;;;;12.25;10.75;;;;;28.72;50.19;100517.28;146616;577;46016;-67
2023/07/06 05:29:42;;;;;;;;;10.00;10.00;;;;;28.87;49.30;100523.97;146612;627;47010;-68
2023/07/06 05:32:43;;;;;;;;;10.33;10.00;;;;;28.96;50.10;100522.84;146612;569;46014;-68
2023/07/06 05:35:43;;;;;;;;;12.50;11.50;;;;;29.10;48.39;100528.72;146615;565;46020;-68
2023/07/06 05:38:47;;;;;;;;;11.75;9.00;;;;;29.18;49.60;100525.81;146612;660;46013;-67
2023/07/06 05:41:51;;;;;;;;;9.67;9.33;;;;;29.31;48.26;100531.69;146622;701;47035;-69
2023/07/06 05:44:43;;;;;;;;;11.00;11.00;;;;;29.36;48.20;100532.44;146615;611;46012;-67
2023/07/06 05:47:47;;;;;;;;;10.00;9.00;;;;;29.42;47.04;100533.13;146614;563;47010;-68
2023/07/06 05:50:50;;;;;;;;;11.25;10.50;;;;;29.51;46.53;100515.09;146618;569;46012;-68
2023/07/06 05:53:57;;;;;;;;;10.33;8.33;;;;;29.48;46.36;100523.19;146617;610;46011;-68
2023/07/06 05:56:49;;;;;;;;;12.00;10.00;;;;;29.46;47.59;100529.44;146618;614;47012;-67
2023/07/06 05:59:52;;;;;;;;;11.00;9.33;;;;;29.54;46.16;100528.34;146614;594;46020;-67
2023/07/06 06:02:47;;;;;;;;;9.67;9.67;;;;;29.64;47.05;100532.50;146616;575;47012;-67
2023/07/06 06:05:53;;;;;;;;;13.33;11.67;;;;;29.78;46.62;100530.28;146620;563;46020;-67
2023/07/06 06:09:02;;;;;;;;;9.67;9.67;;;;;29.91;46.24;100537.00;146610;617;46013;-67
2023/07/06 06:12:05;;;;;;;;;8.67;8.33;;;;;30.08;46.34;100525.75;146626;575;46010;-67
2023/07/06 06:15:10;;;;;;;;;12.00;10.50;;;;;30.19;43.69;100530.78;146615;571;46016;-68
2023/07/06 06:18:08;;;;;;;;;12.33;9.67;;;;;30.00;44.36;100526.91;146613;656;47010;-66
2023/07/06 06:21:00;;;;;;;;;10.33;10.33;;;;;29.85;45.71;100526.50;146619;590;47012;-67
2023/07/06 06:23:53;;;;;;;;;12.33;9.00;;;;;29.87;45.65;100515.75;146615;653;46021;-68
2023/07/06 06:26:54;;;;;;;;;11.67;11.33;;;;;29.92;46.03;100521.84;146617;591;46016;-69
2023/07/06 06:30:05;;;;;;;;;9.00;8.33;;;;;28.77;48.32;100325.91;146614;610;47010;-67
2023/07/06 06:33:01;;;;;;;;;12.33;10.67;;;;;30.07;47.79;100525.81;146616;665;46016;-66
2023/07/06 06:36:03;;;;;;;;;9.67;9.67;;;;;30.20;47.74;100524.50;146616;693;46010;-66
2023/07/06 06:38:55;;;;;;;;;9.67;9.00;;;;;30.33;47.42;100523.16;146616;684;46013;-65
2023/07/06 06:41:48;;;;;;;;;10.00;10.00;;;;;30.39;45.71;100527.44;146624;687;46010;-66
2023/07/06 06:44:49;;;;;;;;;11.33;10.67;;;;;30.31;45.10;100532.16;146611;597;47015;-66
2023/07/06 06:47:44;;;;;;;;;11.00;9.33;;;;;30.21;46.86;100528.06;146616;581;46010;-67
2023/07/06 06:50:43;;;;;;;;;11.67;10.00;;;;;30.19;46.07;100530.78;146616;570;46012;-66
2023/07/06 06:53:43;;;;;;;;;10.00;9.67;;;;;30.22;46.29;100532.47;146612;643;47010;-66
2023/07/06 06:56:49;;;;;;;;;9.33;9.00;;;;;30.23;47.08;100535.13;146616;624;46016;-66
2023/07/06 06:59:42;;;;;;;;;13.50;11.00;;;;;30.31;45.97;100529.50;146623;655;46020;-67
2023/07/06 07:02:39;;;;;;;;;13.00;9.50;;;;;30.45;43.58;100529.03;146612;689;46032;-66
2023/07/06 07:05:32;;;;;;;;;11.67;10.67;;;;;30.56;44.50;100517.06;146618;635;47010;-65
2023/07/06 07:08:26;;;;;;;;;9.00;9.00;;;;;30.38;43.71;100490.94;146613;615;46016;-66
2023/07/06 07:11:45;;;;;;;;;11.25;10.00;;;;;29.22;44.41;100321.87;146623;595;46010;-66
2023/07/06 07:14:43;;;;;;;;;12.25;11.75;;;;;30.26;43.98;100516.28;146608;640;46013;-67
2023/07/06 07:17:57;;;;;;;;;;;;;;;;;;;;;
2023/07/06 07:21:01;;;;;;;;;12.75;11.25;;;;;30.42;45.03;100521.13;146611;677;47012;-66
2023/07/06 07:23:59;;;;;;;;;11.00;10.00;;;;;30.46;45.03;100512.94;146612;607;47010;-67
2023/07/06 07:26:57;;;;;;;;;12.00;11.00;;;;;30.49;45.77;100506.59;146610;631;46012;-66
2023/07/06 07:30:06;;;;;;;;;12.00;10.67;;;;;30.50;45.70;100524.38;146613;564;47020;-67
2023/07/06 07:32:47;;;;;;;;;2.50;2.50;;;;;30.48;44.76;100507.53;146696;564;46023;-66
2023/07/06 07:35:47;;;;;;;;;11.00;9.67;;;;;30.48;45.34;100510.22;146613;635;46016;-67
2023/07/06 07:38:41;;;;;;;;;14.00;12.33;;;;;30.53;45.23;100506.47;146615;576;47010;-68
2023/07/06 07:41:42;;;;;;;;;13.00;10.67;;;;;30.70;43.75;100511.19;146606;692;46016;-65
2023/07/06 07:44:38;;;;;;;;;8.50;8.50;;;;;30.85;43.14;100507.16;146608;631;46020;-66
2023/07/06 07:47:39;;;;;;;;;8.00;8.00;;;;;31.00;43.62;100505.72;146609;583;46017;-66
2023/07/06 07:50:38;;;;;;;;;11.00;9.67;;;;;31.11;42.07;100510.66;146613;628;47012;-66
2023/07/06 07:53:40;;;;;;;;;10.67;9.00;;;;;31.03;42.49;100503.78;146612;581;47016;-67
2023/07/06 07:56:33;;;;;;;;;9.00;9.00;;;;;30.91;42.17;100501.56;146614;577;47012;-67
2023/07/06 07:59:36;;;;;;;;;8.67;7.00;;;;;30.91;43.75;100503.38;146610;620;47014;-65
2023/07/06 08:02:28;;;;;;;;;9.33;9.33;;;;;30.89;41.42;100511.44;146616;571;46010;-66
2023/07/06 08:05:24;;;;;;;;;9.25;8.50;;;;;30.91;42.42;100504.25;146609;644;47012;-67
2023/07/06 08:08:23;;;;;;;;;9.00;8.00;;;;;30.97;42.94;100514.72;146616;641;47011;-65
2023/07/06 08:11:20;;;;;;;;;9.33;9.00;;;;;31.00;42.57;100508.41;146632;566;46917;-66
2023/07/06 08:14:20;;;;;;;;;10.00;10.00;;;;;31.04;43.41;100510.03;146614;578;47010;-66
2023/07/06 08:17:17;;;;;;;;;9.33;9.00;;;;;31.10;42.18;100508.94;146606;592;47017;-65
2023/07/06 08:20:20;;;;;;;;;10.67;9.67;;;;;30.04;44.19;100309.34;146613;595;47010;-69
2023/07/06 08:23:27;;;;;;;;;8.67;8.67;;;;;31.30;42.40;100515.25;146606;726;48016;-67
2023/07/06 08:26:32;;;;;;;;;7.67;7.67;;;;;31.41;42.15;100522.06;146616;583;46020;-66
2023/07/06 08:29:33;;;;;;;;;9.33;9.33;;;;;31.50;42.73;100514.56;146611;603;47012;-67
2023/07/06 08:32:39;;;;;;;;;10.00;8.00;;;;;31.68;42.25;100512.06;146617;612;46010;-67
2023/07/06 08:35:37;;;;;;;;;8.00;8.00;;;;;31.86;41.76;100524.72;146612;635;47016;-67
2023/07/06 08:38:33;;;;;;;;;9.67;8.00;;;;;32.06;41.54;100515.06;146612;598;47010;-67
2023/07/06 08:41:46;;;;;;;;;11.50;9.75;;;;;32.19;42.96;100511.78;146610;639;46917;-68
2023/07/06 08:44:57;;;;;;;;;10.67;10.00;;;;;32.32;40.93;100519.34;146615;615;47013;-67
2023/07/06 08:47:56;;;;;;;;;9.67;9.67;;;;;32.41;41.56;100522.50;146603;679;47012;-66
2023/07/06 08:51:37;;;;;;;;;10.67;10.67;;;;;30.37;42.64;100154.81;146612;595;47020;-66
2023/07/06 08:54:59;;;;;;;;;8.33;8.00;;;;;32.53;41.79;100515.75;146603;576;48016;-67
2023/07/06 08:57:59;;;;;;;;;10.00;8.33;;;;;32.46;40.17;100524.13;146614;580;47010;-66
2023/07/06 09:01:01;;;;;;;;;8.00;7.00;;;;;32.42;40.43;100524.22;146611;596;47017;-67
2023/07/06 09:03:59;;;;;;;;;9.33;9.00;;;;;32.46;40.39;100532.19;146618;586;46019;-67
2023/07/06 09:07:12;;;;;;;;;9.67;9.67;;;;;32.45;40.57;100538.50;146611;625;46016;-67
2023/07/06 09:10:05;;;;;;;;;11.67;8.00;;;;;32.45;40.73;100534.00;146615;577;47020;-67
2023/07/06 09:13:01;;;;;;;;;11.00;10.00;;;;;32.55;40.60;100535.34;146609;577;48012;-65
2023/07/06 09:16:07;;;;;;;;;10.00;10.00;;;;;32.73;41.56;100528.31;146606;637;47021;-66
2023/07/06 09:19:20;;;;;;;;;13.00;12.00;;;;;32.87;41.61;100530.41;146604;584;47012;-65
2023/07/06 09:22:16;;;;;;;;;10.67;9.67;;;;;32.90;39.72;100532.94;146608;652;46020;-65
2023/07/06 09:25:30;;;;;;;;;11.67;10.00;;;;;32.92;39.80;100528.37;146612;598;46014;-66
2023/07/06 09:28:32;;;;;;;;;8.67;8.00;;;;;32.80;39.67;100537.81;146607;586;46020;-66
2023/07/06 09:31:44;;;;;;;;;9.67;9.00;;;;;32.64;38.76;100532.25;146607;689;48017;-67
2023/07/06 09:34:44;;;;;;;;;9.33;9.33;;;;;32.57;39.31;100538.84;146615;698;47010;-66
2023/07/06 09:38:14;;;;;;;;;12.00;10.00;;;;;32.48;40.35;100541.06;146609;579;47016;-67
2023/07/06 09:41:37;;;;;;;;;9.00;8.00;;;;;32.25;40.75;100512.47;146608;586;46010;-66
2023/07/06 09:44:36;;;;;;;;;11.00;9.33;;;;;32.46;41.95;100533.03;146710;565;46012;-68
2023/07/06 09:47:41;;;;;;;;;12.00;9.67;;;;;32.72;40.77;100539.13;146621;599;46016;-69
2023/07/06 09:50:51;;;;;;;;;11.67;10.33;;;;;32.88;41.75;100540.19;146622;687;49020;-67
2023/07/06 09:54:04;;;;;;;;;9.67;9.67;;;;;33.02;39.94;100537.81;146614;668;47017;-66
2023/07/06 09:56:56;;;;;;;;;11.33;10.33;;;;;33.11;38.87;100540.06;146623;569;46020;-68
2023/07/06 09:59:55;;;;;;;;;10.33;9.67;;;;;33.12;38.84;100532.88;146610;609;48016;-66
2023/07/06 10:03:24;;;;;;;;;;;;;;;;;;;;;
2023/07/06 10:06:55;;;;;;;;;10.67;9.00;;;;;33.26;38.43;100529.56;146613;607;46016;-67
2023/07/06 10:10:34;;;;;;;;;9.67;8.00;;;;;32.37;40.58;100348.28;146627;588;47014;-66
2023/07/06 10:14:07;;;;;;;;;9.67;9.67;;;;;33.48;40.90;100519.53;146626;611;46016;-67
2023/07/06 10:17:28;;;;;;;;;12.33;10.33;;;;;33.51;38.38;100529.31;146627;572;47020;-66
2023/07/06 10:21:04;;;;;;;;;7.67;7.00;;;;;33.37;39.98;100521.87;146615;618;46016;-66
2023/07/06 10:24:41;;;;;;;;;8.00;7.00;;;;;33.32;40.77;100526.59;146629;581;46020;-66
2023/07/06 10:27:51;;;;;;;;;8.67;8.67;;;;;33.43;38.47;100531.44;146623;590;48016;-70
2023/07/06 10:31:03;;;;;;;;;10.00;9.00;;;;;33.50;39.50;100527.59;146627;576;47010;-66
2023/07/06 10:34:36;;;;;;;;;10.33;9.33;;;;;33.51;40.31;100524.81;146620;582;47016;-68
2023/07/06 10:37:31;;;;;;;;;10.33;9.67;;;;;33.68;38.00;100523.16;146621;612;46020;-67
2023/07/06 10:40:29;;;;;;;;;10.00;8.33;;;;;33.75;37.46;100524.59;146629;577;46016;-66
2023/07/06 10:43:30;;;;;;;;;10.00;10.00;;;;;33.74;36.95;100514.75;146624;564;47010;-66
2023/07/06 10:47:08;;;;;;;;;10.33;7.00;;;;;33.71;38.94;100520.28;146606;571;47012;-66
2023/07/06 10:50:27;;;;;;;;;9.00;9.00;;;;;33.67;39.16;100518.69;146623;589;46020;-66
2023/07/06 10:53:36;;;;;;;;;12.00;9.33;;;;;33.62;36.96;100512.69;146617;569;46012;-66
2023/07/06 10:56:47;;;;;;;;;10.67;9.00;;;;;33.52;38.23;100514.91;146618;609;46020;-66
2023/07/06 10:59:55;;;;;;;;;8.33;8.33;;;;;33.44;36.98;100512.56;146614;596;46014;-66
2023/07/06 11:02:50;;;;;;;;;9.67;8.33;;;;;33.25;36.05;100519.75;146619;600;48020;-65
2023/07/06 11:06:05;;;;;;;;;10.67;9.67;;;;;33.06;38.97;100512.53;146617;649;46016;-68
2023/07/06 11:09:17;;;;;;;;;11.00;10.00;;;;;33.08;36.62;100517.84;146620;625;46021;-65
2023/07/06 11:12:23;;;;;;;;;11.00;10.00;;;;;33.18;39.59;100511.13;146614;577;46012;-68
2023/07/06 11:15:32;;;;;;;;;9.00;9.00;;;;;33.24;39.62;100501.87;146612;581;46020;-67
2023/07/06 11:18:47;;;;;;;;;11.50;11.00;;;;;33.28;39.85;100501.69;146615;563;46016;-67
2023/07/06 11:21:54;;;;;;;;;8.00;8.00;;;;;33.38;38.43;100499.44;146614;602;46021;-66
2023/07/06 11:25:03;;;;;;;;;8.67;8.67;;;;;33.47;39.57;100509.75;146613;637;46016;-67
2023/07/06 11:28:05;;;;;;;;;12.33;10.00;;;;;33.56;37.25;100503.09;146620;567;47020;-67
2023/07/06 11:31:18;;;;;;;;;9.67;9.67;;;;;33.54;38.43;100500.47;146605;570;47012;-68
2023/07/06 11:34:51;;;;;;;;;12.33;10.67;;;;;33.60;39.32;100503.81;146618;610;47010;-67
2023/07/06 11:38:32;;;;;;;;;8.67;8.67;;;;;33.58;37.90;100503.88;146607;620;47016;-66
2023/07/06 11:42:11;;;;;;;;;10.67;9.67;;;;;32.66;39.30;100346.97;146620;612;46020;-67
2023/07/06 11:46:28;;;;;;;;;;;;;;;;;;;;;
2023/07/06 11:49:45;;;;;;;;;6.75;6.00;;;;;33.90;37.86;100499.66;146635;626;45022;-66
2023/07/06 11:52:44;;;;;;;;;7.00;7.00;;;;;33.88;36.82;100490.78;146642;566;45016;-67
2023/07/06 11:56:04;;;;;;;;;8.00;7.67;;;;;33.87;36.67;100482.78;146642;632;45029;-67
2023/07/06 11:59:03;;;;;;;;;8.50;8.25;;;;;33.87;36.69;100493.56;146637;631;46017;-65
2023/07/06 12:02:07;;;;;;;;;12.00;11.00;;;;;33.80;36.21;100488.47;146638;611;45020;-67
2023/07/06 12:05:05;;;;;;;;;9.67;9.67;;;;;33.68;37.82;100489.06;146631;586;45914;-68
2023/07/06 12:08:39;;;;;;;;;8.33;7.00;;;;;33.54;36.38;100486.16;146644;619;45010;-66
2023/07/06 12:11:40;;;;;;;;;9.25;9.25;;;;;33.45;38.52;100478.50;146639;563;45016;-68
2023/07/06 12:14:43;;;;;;;;;11.00;10.25;;;;;33.41;37.47;100480.47;146637;573;47011;-66
2023/07/06 12:17:50;;;;;;;;;10.00;9.00;;;;;33.37;36.95;100481.56;146632;612;46016;-68
2023/07/06 12:20:48;;;;;;;;;10.00;10.00;;;;;33.31;37.69;100474.66;146643;590;45011;-67
2023/07/06 12:23:44;;;;;;;;;9.00;8.67;;;;;33.27;37.81;100470.38;146629;578;46913;-69
2023/07/06 12:26:56;;;;;;;;;10.00;9.67;;;;;33.22;38.95;100475.09;146641;592;46010;-66
2023/07/06 12:30:20;;;;;;;;;11.75;10.00;;;;;33.17;37.57;100477.13;146638;715;45014;-66
2023/07/06 12:33:20;;;;;;;;;10.67;9.00;;;;;33.17;40.04;100477.13;146635;643;45010;-66
2023/07/06 12:36:18;;;;;;;;;10.67;9.67;;;;;33.30;39.23;100481.00;146638;627;46012;-66
2023/07/06 12:39:11;;;;;;;;;11.33;11.33;;;;;33.52;39.22;100482.66;146642;585;46010;-67
2023/07/06 12:42:06;;;;;;;;;10.00;8.00;;;;;33.67;38.54;100481.06;146633;585;45017;-66
2023/07/06 12:45:04;;;;;;;;;9.67;9.00;;;;;33.71;39.22;100482.66;146621;693;46021;-65
2023/07/06 12:48:07;;;;;;;;;15.00;10.00;;;;;33.76;38.38;100483.31;146616;583;47012;-69
2023/07/06 12:51:23;;;;;;;;;10.00;10.00;;;;;33.77;38.98;100477.87;146614;658;46021;-67
2023/07/06 12:54:18;;;;;;;;;11.00;9.33;;;;;33.81;37.16;100478.59;146608;586;46016;-66
2023/07/06 12:57:31;;;;;;;;;10.00;10.00;;;;;33.79;38.23;100470.56;146619;632;46021;-67
2023/07/06 13:00:41;;;;;;;;;9.00;9.00;;;;;33.77;38.55;100468.91;146613;569;46012;-66
2023/07/06 13:03:47;;;;;;;;;7.50;7.50;;;;;33.76;38.05;100465.34;146613;657;48020;-66
2023/07/06 13:06:59;;;;;;;;;10.00;10.00;;;;;33.79;39.07;100465.19;146615;625;46012;-66
2023/07/06 13:09:54;;;;;;;;;12.67;11.33;;;;;33.87;37.49;100458.59;146615;630;46010;-67
2023/07/06 13:12:54;;;;;;;;;10.33;8.33;;;;;33.90;36.89;100453.06;146610;577;47017;-67
2023/07/06 13:16:18;;;;;;;;;10.00;9.00;;;;;33.91;37.28;100454.78;146620;569;47010;-68
2023/07/06 13:19:16;;;;;;;;;13.33;11.00;;;;;33.90;36.87;100453.91;146614;677;46016;-64
2023/07/06 13:22:27;;;;;;;;;8.33;7.00;;;;;33.93;37.84;100453.75;146614;710;46020;-67
2023/07/06 13:25:21;;;;;;;;;9.67;9.33;;;;;33.94;36.21;100452.81;146619;589;46012;-65
2023/07/06 13:28:22;;;;;;;;;8.33;7.33;;;;;33.95;36.86;100448.28;146621;577;46010;-67
2023/07/06 13:31:26;;;;;;;;;11.33;11.33;;;;;33.95;37.88;100449.16;146611;589;46016;-68
2023/07/06 13:34:24;;;;;;;;;11.67;11.33;;;;;33.94;35.80;100447.44;146612;564;46020;-67
2023/07/06 13:37:37;;;;;;;;;12.00;11.00;;;;;33.92;38.45;100443.94;146609;566;47012;-68
2023/07/06 13:40:37;;;;;;;;;10.33;10.33;;;;;33.89;36.30;100449.47;146614;622;46010;-67
2023/07/06 13:43:36;;;;;;;;;8.33;6.00;;;;;33.87;36.22;100447.81;146608;564;46016;-68
2023/07/06 13:46:31;;;;;;;;;9.00;9.00;;;;;33.76;37.40;100443.84;146622;689;46020;-66
2023/07/06 13:49:38;;;;;;;;;8.67;8.33;;;;;33.73;39.31;100441.28;146614;658;46017;-66
2023/07/06 13:52:33;;;;;;;;;9.67;9.00;;;;;33.72;37.16;100441.38;146621;644;47010;-67
2023/07/06 13:55:33;;;;;;;;;9.00;7.33;;;;;33.71;37.39;100437.81;146615;590;46016;-68
2023/07/06 13:58:45;;;;;;;;;9.00;9.00;;;;;32.53;38.02;100244.69;146620;600;46021;-67
2023/07/06 14:01:48;;;;;;;;;11.00;9.33;;;;;33.61;36.61;100436.53;146615;633;46016;-69
2023/07/06 14:04:42;;;;;;;;;9.00;9.00;;;;;33.56;36.58;100441.28;146616;651;46021;-69
2023/07/06 14:08:02;;;;;;;;;8.67;8.67;;;;;33.53;37.80;100441.41;146619;627;46016;-67
2023/07/06 14:11:06;;;;;;;;;10.50;10.50;;;;;33.50;37.68;100442.44;146618;705;46010;-67
2023/07/06 14:14:05;;;;;;;;;11.00;9.75;;;;;33.50;35.66;100437.06;146605;574;47014;-68